GVAC

Sal/Amílcar Cabral International Airport

Airport
ICAO code
GVAC
IATA Code
SID
Summary
ICAO Region
AFI
ICAO Territory
Location

Espargos, Sal Island, Ilhas de Barlavento

Serving
Espargos
Elevation
177 ft
Coordinates
16° 44' 30" N , 22° 56' 54" W
KCC
BSh
Metar
Observation
GVAC 091000Z 06003KT 020V060 9999 BKN013 SCT090 27/22 Q1014 NOSIG
Station
Sal
Date/Time
2022-08-09 10:00:00
Wind direction
60°
Wind speed
03 kts
Lowest cloud amount
broken clouds
Temperature
27°C
Dew point
22°C
Humidity
74%
QNH
1014 hPa
Weather condition
n/a

Description

International airport serving Sal, Cape Verde islands.

Climatology

Hot, semi-arid/Steppe climate (Köppen climate classification BSh) - hot, sometimes extremely hot summers and mild to warm winters, with low annual precipitation.

Runways

Designator Length Width Surface Rops
7/25 1500 45 ASP Yes/Yes
1/19 3272 45 ASP Yes/Yes

Airport map

Aerial View

SKYbrary Partners:

Safety knowledge contributed by: